National Weather Service United States Department of Commerce

Airport Observations and Forecasts (from NWS CLE)

Cleveland Hopkins International Airport

 

FAA details


000
FTUS41 KCLE 052329
TAFCLE
TAF
KCLE 052329Z 0600/0706 17007KT P6SM BKN070
FM060200 18005KT P6SM VCSH OVC050
TEMPO 0604/0607 4SM -RADZ BR OVC025
FM060700 18005KT 5SM -SHRA OVC025
FM061000 17004KT P6SM VCSH OVC015
FM061400 VRB03KT 5SM BR OVC008
FM062000 VRB03KT 5SM -SHRA BR OVC008=

24 hours of observations

7-day forecast

Hourly - Tabular forecast  Hourly - Graph forecast

Terminal Information Board

Toledo Express Airport

 

FAA details


000
FTUS41 KCLE 052329
TAFTOL
TAF
KTOL 052329Z 0600/0624 18005KT P6SM VCSH BKN035
FM060500 VRB04KT P6SM VCSH OVC025
FM061200 00000KT P6SM OVC015=

24 hours of observations

7-day forecast

Hourly - Tabular forecast  Hourly - Graph forecast

Terminal Information Board

Findlay Airport

 

FAA details


000
FTUS41 KCLE 052329
TAFFDY
TAF
KFDY 052329Z 0600/0624 17009KT P6SM OVC045
FM060300 17007KT P6SM VCSH OVC025
FM061100 VRB03KT P6SM OVC009
FM061500 VRB04KT 5SM BR OVC009
FM062000 06004KT 5SM BR VCSH OVC008=

24 hours of observations

7-day forecast

Hourly - Tabular forecast   Hourly - Graph forecast

Terminal Information Board

Mansfield Lahm Airport

 

FAA details


000
FTUS41 KCLE 052329
TAFMFD
TAF
KMFD 052329Z 0600/0624 16009KT P6SM BKN070
FM060400 17006KT P6SM VCSH OVC030
TEMPO 0605/0607 5SM -RADZ BR OVC015
FM060900 18005KT 5SM BR VCSH OVC008
FM061800 17004KT 4SM BR OVC005=

24 hours of observations

7-day forecast

Hourly - Tabular forecast   Hourly - Graph forecast

Terminal Information Board

Akron-Canton Airport

 

FAA details


000
FTUS41 KCLE 052329
TAFCAK
TAF
KCAK 052329Z 0600/0624 15007KT P6SM BKN070
FM060300 17008KT P6SM VCSH OVC050
FM060600 16006KT 6SM -RA BR OVC025
FM061000 16005KT P6SM VCSH OVC015
FM061300 16004KT P6SM OVC008
FM061900 17004KT 3SM -DZ BR OVC003=

24 hours of observations

7-day forecast

Hourly - Tabular forecast   Hourly - Graph forecast

Terminal Information Board

Youngstown-Warren Regional Airport

 

FAA details


000
FTUS41 KCLE 052329
TAFYNG
TAF
KYNG 052329Z 0600/0624 15007KT P6SM SCT070 BKN150
FM060400 16005KT P6SM VCSH OVC050
FM060800 14006KT 5SM -RA BR OVC020
FM061100 14006KT P6SM VCSH OVC015
FM061400 14004KT P6SM OVC008
FM061800 15004KT 5SM BR VCSH OVC008
FM062100 13004KT 2SM -RA BR OVC003=

24 hours of observations

7-day forecast

Hourly - Tabular forecast   Hourly - Graph forecast

Terminal Information Board

Erie International Airport

 

FAA details


000
FTUS41 KCLE 052329
TAFERI
TAF
KERI 052329Z 0600/0624 16010KT P6SM SCT200
FM060500 17010KT P6SM VCSH OVC050
FM060800 17011KT 6SM -SHRA OVC045
FM061100 17010KT P6SM VCSH OVC025
FM061500 17009KT P6SM OVC015
FM061900 16006KT 5SM BR VCSH OVC015
FM062100 12005KT 4SM -DZRA BR OVC008=

24 hours of observations

7-day forecast

Hourly - Tabular Forecast  Hourly - Graph forecast

Terminal Information Board

The National Weather Service is Cleveland is responsible for the Terminal Areodome Forecasts for seven area airports in northern Ohio and northwest Pennsylvania.  Routine issuance times are by 00Z, 06Z, 12Z, and 18Z with amendments, as needed.

Latest Surface Analysis

Additional Current Conditions

Satellite

Radar
 
 

 

Center Weather Service Unit, Oberlin/ZOB

CWA/MIS    

 

The National Weather Service Center Weather Service Unit in Oberlin is responsible for the airspace above northern Ohio and northwest Pennsylvania and ajoining areas.

 

Aviaiton Weather Center National, AWC

AIRMETS & SIGMETS